AFR72UQ LFPG-EKCH
Flight info
| Callsign | AFR72UQ |
|---|---|
| Flight time | 1h 37m |
| Altitude | 37000 |
| Route | NURMO DCT CMB DCT VEKIN DCT ADUTO DCT VICOT DCT EEL DCT TALSA P729 TUDLO |
| Aircraft | A320/M-SDE2E3FGIJ1RWY/HB1 |
Departure
| Time | 2026-04-30 07:46 |
|---|---|
| Airport | Charles de Gaulle International Airport (LFPG) |
Arrival
| Time | 2026-04-30 09:23 |
|---|---|
| Airport | Copenhagen Kastrup Airport (EKCH) |
| Time | Latitude | Longitude | Altitude | Speed | Heading |
|---|---|---|---|---|---|
| 2026-04-30 07:14 | 49.00739 | 2.57962 | 401 ft | 0 kts | 225° |
| 2026-04-30 07:34 | 49.00745 | 2.57970 | 401 ft | 2 kts | 222° |
| 2026-04-30 07:34 | 49.00759 | 2.57992 | 401 ft | 2 kts | 225° |
| 2026-04-30 07:34 | 49.00766 | 2.58002 | 401 ft | 2 kts | 224° |
| 2026-04-30 07:34 | 49.00778 | 2.58017 | 401 ft | 2 kts | 199° |
| 2026-04-30 07:35 | 49.00793 | 2.58021 | 401 ft | 2 kts | 179° |
| 2026-04-30 07:35 | 49.00806 | 2.58026 | 401 ft | 2 kts | 221° |
| 2026-04-30 07:35 | 49.00814 | 2.58044 | 401 ft | 1 kts | 258° |
| 2026-04-30 07:35 | 49.00815 | 2.58054 | 401 ft | 1 kts | 273° |
| 2026-04-30 07:36 | 49.00815 | 2.58060 | 401 ft | 0 kts | 268° |
| 2026-04-30 07:37 | 49.00815 | 2.58059 | 401 ft | 0 kts | 268° |
| 2026-04-30 07:37 | 49.00815 | 2.58046 | 401 ft | 2 kts | 268° |
| 2026-04-30 07:37 | 49.00813 | 2.58008 | 401 ft | 5 kts | 266° |
| 2026-04-30 07:38 | 49.00809 | 2.57938 | 401 ft | 8 kts | 265° |
| 2026-04-30 07:38 | 49.00803 | 2.57834 | 401 ft | 10 kts | 265° |
| 2026-04-30 07:38 | 49.00834 | 2.57740 | 401 ft | 10 kts | 335° |
| 2026-04-30 07:38 | 49.00880 | 2.57664 | 401 ft | 10 kts | 279° |
| 2026-04-30 07:39 | 49.00877 | 2.57540 | 401 ft | 12 kts | 265° |
| 2026-04-30 07:39 | 49.00869 | 2.57403 | 401 ft | 13 kts | 265° |
| 2026-04-30 07:39 | 49.00861 | 2.57252 | 401 ft | 14 kts | 266° |
| 2026-04-30 07:39 | 49.00853 | 2.57088 | 401 ft | 16 kts | 265° |
| 2026-04-30 07:40 | 49.00843 | 2.56914 | 401 ft | 16 kts | 265° |
| 2026-04-30 07:40 | 49.00832 | 2.56736 | 401 ft | 17 kts | 265° |
| 2026-04-30 07:40 | 49.00821 | 2.56550 | 401 ft | 17 kts | 265° |
| 2026-04-30 07:40 | 49.00807 | 2.56361 | 401 ft | 18 kts | 262° |
| 2026-04-30 07:41 | 49.00787 | 2.56171 | 401 ft | 18 kts | 262° |
| 2026-04-30 07:41 | 49.00770 | 2.55975 | 401 ft | 18 kts | 263° |
| 2026-04-30 07:41 | 49.00751 | 2.55781 | 401 ft | 18 kts | 262° |
| 2026-04-30 07:41 | 49.00735 | 2.55587 | 401 ft | 18 kts | 264° |
| 2026-04-30 07:42 | 49.00724 | 2.55410 | 401 ft | 13 kts | 265° |
| 2026-04-30 07:42 | 49.00686 | 2.55278 | 401 ft | 14 kts | 227° |
| 2026-04-30 07:42 | 49.00592 | 2.55265 | 401 ft | 14 kts | 165° |
| 2026-04-30 07:42 | 49.00493 | 2.55310 | 401 ft | 15 kts | 164° |
| 2026-04-30 07:43 | 49.00391 | 2.55356 | 401 ft | 15 kts | 164° |
| 2026-04-30 07:43 | 49.00285 | 2.55402 | 401 ft | 16 kts | 164° |
| 2026-04-30 07:43 | 49.00177 | 2.55449 | 401 ft | 16 kts | 164° |
| 2026-04-30 07:43 | 49.00065 | 2.55497 | 401 ft | 16 kts | 165° |
| 2026-04-30 07:44 | 48.99968 | 2.55538 | 401 ft | 11 kts | 165° |
| 2026-04-30 07:44 | 48.99892 | 2.55591 | 401 ft | 12 kts | 139° |
| 2026-04-30 07:44 | 48.99840 | 2.55705 | 401 ft | 13 kts | 115° |
| 2026-04-30 07:44 | 48.99794 | 2.55800 | 401 ft | 10 kts | 159° |
| 2026-04-30 07:45 | 48.99720 | 2.55810 | 401 ft | 11 kts | 175° |
| 2026-04-30 07:45 | 48.99640 | 2.55827 | 401 ft | 11 kts | 169° |
| 2026-04-30 07:45 | 48.99601 | 2.55880 | 401 ft | 7 kts | 98° |
| 2026-04-30 07:45 | 48.99605 | 2.55941 | 401 ft | 6 kts | 84° |
| 2026-04-30 07:46 | 48.99621 | 2.56259 | 401 ft | 64 kts | 86° |
| 2026-04-30 07:46 | 48.99675 | 2.57279 | 401 ft | 127 kts | 85° |
| 2026-04-30 07:46 | 48.99759 | 2.58852 | 609 ft | 159 kts | 86° |
| 2026-04-30 07:46 | 48.99846 | 2.60483 | 1350 ft | 154 kts | 88° |
| 2026-04-30 07:47 | 48.99927 | 2.62042 | 2141 ft | 150 kts | 89° |
| 2026-04-30 07:47 | 49.00008 | 2.63582 | 2883 ft | 148 kts | 89° |
| 2026-04-30 07:47 | 49.00089 | 2.65127 | 3544 ft | 150 kts | 89° |
| 2026-04-30 07:47 | 49.00172 | 2.66773 | 4024 ft | 164 kts | 89° |
| 2026-04-30 07:48 | 49.00263 | 2.68582 | 4465 ft | 181 kts | 89° |
| 2026-04-30 07:48 | 49.00365 | 2.70578 | 4879 ft | 199 kts | 88° |
| 2026-04-30 07:48 | 49.00479 | 2.72804 | 5218 ft | 223 kts | 88° |
| 2026-04-30 07:48 | 49.00605 | 2.75235 | 5753 ft | 238 kts | 87° |
| 2026-04-30 07:49 | 49.00739 | 2.77822 | 6284 ft | 253 kts | 87° |
| 2026-04-30 07:49 | 49.00879 | 2.80496 | 7007 ft | 260 kts | 87° |
| 2026-04-30 07:49 | 49.01057 | 2.83240 | 7816 ft | 264 kts | 80° |
| 2026-04-30 07:49 | 49.01829 | 2.85785 | 8569 ft | 273 kts | 53° |
| 2026-04-30 07:50 | 49.03327 | 2.87568 | 9323 ft | 284 kts | 27° |
| 2026-04-30 07:50 | 49.05253 | 2.88174 | 10039 ft | 296 kts | 1° |
| 2026-04-30 07:50 | 49.07313 | 2.87861 | 10718 ft | 304 kts | 357° |
| 2026-04-30 07:50 | 49.09473 | 2.87485 | 11138 ft | 319 kts | 357° |
| 2026-04-30 07:51 | 49.11705 | 2.87106 | 11755 ft | 326 kts | 357° |
| 2026-04-30 07:51 | 49.13937 | 2.86734 | 12465 ft | 329 kts | 357° |
| 2026-04-30 07:51 | 49.16206 | 2.86360 | 13153 ft | 332 kts | 357° |
| 2026-04-30 07:51 | 49.18497 | 2.85986 | 13816 ft | 335 kts | 357° |
| 2026-04-30 07:52 | 49.20809 | 2.85610 | 14481 ft | 338 kts | 357° |
| 2026-04-30 07:52 | 49.23167 | 2.85226 | 15132 ft | 340 kts | 357° |
| 2026-04-30 07:52 | 49.25504 | 2.84849 | 15742 ft | 344 kts | 358° |
| 2026-04-30 07:52 | 49.27901 | 2.84461 | 16357 ft | 347 kts | 358° |
| 2026-04-30 07:53 | 49.30308 | 2.84071 | 16966 ft | 349 kts | 358° |
| 2026-04-30 07:53 | 49.32712 | 2.83682 | 17538 ft | 352 kts | 358° |
| 2026-04-30 07:53 | 49.35136 | 2.83289 | 18099 ft | 355 kts | 358° |
| 2026-04-30 07:53 | 49.37601 | 2.82891 | 18661 ft | 358 kts | 358° |
| 2026-04-30 07:54 | 49.40103 | 2.82485 | 19211 ft | 361 kts | 358° |
| 2026-04-30 07:54 | 49.42597 | 2.82081 | 19749 ft | 363 kts | 358° |
| 2026-04-30 07:54 | 49.45094 | 2.81673 | 20280 ft | 366 kts | 358° |
| 2026-04-30 07:54 | 49.47621 | 2.81262 | 20798 ft | 368 kts | 358° |
| 2026-04-30 07:55 | 49.50161 | 2.80848 | 21300 ft | 371 kts | 359° |
| 2026-04-30 07:55 | 49.52748 | 2.80426 | 21813 ft | 373 kts | 359° |
| 2026-04-30 07:55 | 49.55337 | 2.80005 | 22316 ft | 375 kts | 359° |
| 2026-04-30 07:55 | 49.57912 | 2.79584 | 22784 ft | 378 kts | 359° |
| 2026-04-30 07:56 | 49.60555 | 2.79152 | 23246 ft | 381 kts | 358° |
| 2026-04-30 07:56 | 49.63185 | 2.78720 | 23693 ft | 384 kts | 359° |
| 2026-04-30 07:56 | 49.65834 | 2.78283 | 24147 ft | 386 kts | 359° |
| 2026-04-30 07:56 | 49.68484 | 2.77847 | 24568 ft | 389 kts | 359° |
| 2026-04-30 07:57 | 49.71189 | 2.77400 | 25010 ft | 391 kts | 359° |
| 2026-04-30 07:57 | 49.73901 | 2.76954 | 25432 ft | 394 kts | 359° |
| 2026-04-30 07:57 | 49.76640 | 2.76503 | 25841 ft | 397 kts | 359° |
| 2026-04-30 07:57 | 49.79354 | 2.76071 | 26242 ft | 398 kts | 1° |
| 2026-04-30 07:58 | 49.82090 | 2.76289 | 26598 ft | 392 kts | 17° |
| 2026-04-30 07:58 | 49.84665 | 2.77580 | 26992 ft | 386 kts | 31° |
| 2026-04-30 07:58 | 49.86959 | 2.79634 | 27380 ft | 383 kts | 37° |
| 2026-04-30 07:58 | 49.89219 | 2.81870 | 27733 ft | 386 kts | 38° |
| 2026-04-30 07:59 | 49.91470 | 2.84113 | 28072 ft | 389 kts | 37° |
| 2026-04-30 07:59 | 49.93739 | 2.86368 | 28462 ft | 391 kts | 37° |
| 2026-04-30 07:59 | 49.96040 | 2.88643 | 28830 ft | 393 kts | 37° |
| 2026-04-30 08:00 | 50.00639 | 2.93175 | 29556 ft | 395 kts | 37° |
| 2026-04-30 08:00 | 50.02959 | 2.95464 | 29914 ft | 396 kts | 37° |
| 2026-04-30 08:00 | 50.05287 | 2.97764 | 30204 ft | 399 kts | 37° |
| 2026-04-30 08:00 | 50.07645 | 3.00093 | 30492 ft | 402 kts | 37° |
| 2026-04-30 08:01 | 50.10007 | 3.02427 | 30776 ft | 404 kts | 37° |
| 2026-04-30 08:01 | 50.12375 | 3.04772 | 31036 ft | 406 kts | 37° |
| 2026-04-30 08:01 | 50.14729 | 3.07105 | 31307 ft | 408 kts | 37° |
| 2026-04-30 08:01 | 50.17145 | 3.09502 | 31582 ft | 409 kts | 37° |
| 2026-04-30 08:02 | 50.21963 | 3.14159 | 32127 ft | 414 kts | 34° |
| 2026-04-30 08:02 | 50.24517 | 3.16274 | 32387 ft | 417 kts | 31° |
| 2026-04-30 08:03 | 50.29795 | 3.20056 | 32863 ft | 421 kts | 28° |
| 2026-04-30 08:03 | 50.35156 | 3.23791 | 33336 ft | 423 kts | 28° |
| 2026-04-30 08:03 | 50.37841 | 3.25675 | 33571 ft | 424 kts | 28° |
| 2026-04-30 08:04 | 50.40507 | 3.27573 | 33771 ft | 425 kts | 30° |
| 2026-04-30 08:04 | 50.43177 | 3.29618 | 33973 ft | 426 kts | 30° |
| 2026-04-30 08:04 | 50.45814 | 3.31681 | 34208 ft | 426 kts | 31° |
| 2026-04-30 08:04 | 50.48445 | 3.33750 | 34481 ft | 425 kts | 30° |
| 2026-04-30 08:05 | 50.51088 | 3.35814 | 34749 ft | 424 kts | 29° |
| 2026-04-30 08:05 | 50.53745 | 3.37738 | 34966 ft | 425 kts | 28° |
| 2026-04-30 08:05 | 50.56460 | 3.39640 | 35169 ft | 425 kts | 27° |
| 2026-04-30 08:06 | 50.61864 | 3.43409 | 35289 ft | 428 kts | 27° |
| 2026-04-30 08:06 | 50.64585 | 3.45310 | 35475 ft | 428 kts | 27° |
| 2026-04-30 08:06 | 50.67282 | 3.47199 | 35696 ft | 426 kts | 27° |
| 2026-04-30 08:06 | 50.69990 | 3.49096 | 35863 ft | 426 kts | 27° |
| 2026-04-30 08:07 | 50.72675 | 3.50980 | 35991 ft | 427 kts | 27° |
| 2026-04-30 08:07 | 50.75395 | 3.52892 | 36115 ft | 428 kts | 27° |
| 2026-04-30 08:07 | 50.78079 | 3.54782 | 36238 ft | 428 kts | 27° |
| 2026-04-30 08:07 | 50.80796 | 3.56697 | 36355 ft | 429 kts | 27° |
| 2026-04-30 08:08 | 50.83519 | 3.58620 | 36471 ft | 429 kts | 27° |
| 2026-04-30 08:08 | 50.86245 | 3.60547 | 36581 ft | 430 kts | 27° |
| 2026-04-30 08:08 | 50.88959 | 3.62471 | 36690 ft | 430 kts | 27° |
| 2026-04-30 08:08 | 50.91670 | 3.64392 | 36809 ft | 431 kts | 27° |
| 2026-04-30 08:09 | 50.94429 | 3.66353 | 36962 ft | 431 kts | 27° |
| 2026-04-30 08:09 | 50.97150 | 3.68287 | 37074 ft | 431 kts | 27° |
| 2026-04-30 08:09 | 50.99884 | 3.70233 | 37186 ft | 432 kts | 27° |
| 2026-04-30 08:09 | 51.02587 | 3.72159 | 37291 ft | 433 kts | 27° |
| 2026-04-30 08:10 | 51.05330 | 3.74116 | 37297 ft | 433 kts | 27° |
| 2026-04-30 08:10 | 51.10804 | 3.78032 | 37295 ft | 433 kts | 27° |
| 2026-04-30 08:11 | 51.16276 | 3.81955 | 37307 ft | 432 kts | 27° |
| 2026-04-30 08:11 | 51.21746 | 3.85888 | 37312 ft | 432 kts | 27° |
| 2026-04-30 08:12 | 51.27187 | 3.89813 | 37315 ft | 432 kts | 27° |
| 2026-04-30 08:12 | 51.32615 | 3.93731 | 37315 ft | 431 kts | 27° |
| 2026-04-30 08:13 | 51.38087 | 3.97696 | 37325 ft | 430 kts | 27° |
| 2026-04-30 08:13 | 51.43437 | 4.01783 | 37329 ft | 428 kts | 31° |
| 2026-04-30 08:14 | 51.48498 | 4.06716 | 37339 ft | 426 kts | 37° |
| 2026-04-30 08:14 | 51.53158 | 4.12484 | 37339 ft | 424 kts | 43° |
| 2026-04-30 08:15 | 51.57518 | 4.18844 | 37342 ft | 423 kts | 45° |
| 2026-04-30 08:15 | 51.61798 | 4.25205 | 37348 ft | 423 kts | 45° |
| 2026-04-30 08:16 | 51.66116 | 4.31634 | 37346 ft | 422 kts | 45° |
| 2026-04-30 08:16 | 51.70409 | 4.38038 | 37356 ft | 421 kts | 45° |
| 2026-04-30 08:17 | 51.74662 | 4.44399 | 37363 ft | 421 kts | 45° |
| 2026-04-30 08:17 | 51.78969 | 4.50851 | 37361 ft | 421 kts | 45° |
| 2026-04-30 08:18 | 51.83230 | 4.57256 | 37373 ft | 421 kts | 45° |
| 2026-04-30 08:18 | 51.87484 | 4.63667 | 37372 ft | 420 kts | 45° |
| 2026-04-30 08:19 | 51.91730 | 4.70083 | 37377 ft | 419 kts | 45° |
| 2026-04-30 08:19 | 51.95991 | 4.76540 | 37381 ft | 418 kts | 45° |
| 2026-04-30 08:20 | 52.00216 | 4.82960 | 37379 ft | 419 kts | 45° |
| 2026-04-30 08:20 | 52.04461 | 4.89431 | 37377 ft | 419 kts | 45° |
| 2026-04-30 08:21 | 52.08680 | 4.95880 | 37388 ft | 418 kts | 45° |
| 2026-04-30 08:21 | 52.12904 | 5.02352 | 37394 ft | 418 kts | 45° |
| 2026-04-30 08:22 | 52.17098 | 5.08793 | 37397 ft | 417 kts | 45° |
| 2026-04-30 08:22 | 52.21299 | 5.15260 | 37405 ft | 417 kts | 45° |
| 2026-04-30 08:23 | 52.25491 | 5.21734 | 37413 ft | 417 kts | 45° |
| 2026-04-30 08:23 | 52.29693 | 5.28241 | 37413 ft | 417 kts | 45° |
| 2026-04-30 08:24 | 52.33881 | 5.34744 | 37415 ft | 417 kts | 45° |
| 2026-04-30 08:24 | 52.38042 | 5.41223 | 37420 ft | 416 kts | 45° |
| 2026-04-30 08:25 | 52.42212 | 5.47735 | 37428 ft | 416 kts | 45° |
| 2026-04-30 08:25 | 52.46392 | 5.54279 | 37435 ft | 416 kts | 45° |
| 2026-04-30 08:26 | 52.50561 | 5.60822 | 37437 ft | 416 kts | 45° |
| 2026-04-30 08:26 | 52.54729 | 5.67384 | 37432 ft | 416 kts | 45° |
| 2026-04-30 08:27 | 52.58881 | 5.73940 | 37430 ft | 416 kts | 45° |
| 2026-04-30 08:27 | 52.63035 | 5.80515 | 37435 ft | 415 kts | 45° |
| 2026-04-30 08:28 | 52.67159 | 5.87064 | 37445 ft | 416 kts | 45° |
| 2026-04-30 08:28 | 52.71307 | 5.93665 | 37450 ft | 415 kts | 45° |
| 2026-04-30 08:29 | 52.75447 | 6.00270 | 37452 ft | 415 kts | 45° |
| 2026-04-30 08:29 | 52.79581 | 6.06890 | 37455 ft | 415 kts | 45° |
| 2026-04-30 08:30 | 52.83700 | 6.13501 | 37459 ft | 416 kts | 45° |
| 2026-04-30 08:30 | 52.87842 | 6.20167 | 37455 ft | 416 kts | 45° |
| 2026-04-30 08:30 | 52.89904 | 6.23492 | 37787 ft | 416 kts | 45° |
| 2026-04-30 08:31 | 52.91955 | 6.26805 | 37560 ft | 414 kts | 45° |
| 2026-04-30 08:31 | 52.96069 | 6.33463 | 37118 ft | 414 kts | 45° |
| 2026-04-30 08:31 | 52.98121 | 6.36792 | 37337 ft | 412 kts | 45° |
| 2026-04-30 08:32 | 53.00160 | 6.40102 | 37427 ft | 414 kts | 45° |
| 2026-04-30 08:32 | 53.04271 | 6.46795 | 37461 ft | 416 kts | 45° |
| 2026-04-30 08:33 | 53.08374 | 6.53491 | 37469 ft | 416 kts | 45° |
| 2026-04-30 08:33 | 53.12475 | 6.60203 | 37470 ft | 416 kts | 45° |
| 2026-04-30 08:34 | 53.16617 | 6.66922 | 37466 ft | 416 kts | 43° |
| 2026-04-30 08:34 | 53.20930 | 6.73287 | 37468 ft | 416 kts | 42° |
| 2026-04-30 08:35 | 53.25259 | 6.79605 | 37468 ft | 416 kts | 42° |
| 2026-04-30 08:35 | 53.29643 | 6.86024 | 37468 ft | 416 kts | 42° |
| 2026-04-30 08:36 | 53.33965 | 6.92372 | 37476 ft | 416 kts | 42° |
| 2026-04-30 08:36 | 53.38325 | 6.98799 | 37477 ft | 416 kts | 42° |
| 2026-04-30 08:37 | 53.42678 | 7.05234 | 37480 ft | 416 kts | 42° |
| 2026-04-30 08:37 | 53.47023 | 7.11676 | 37482 ft | 416 kts | 42° |
| 2026-04-30 08:38 | 53.51350 | 7.18109 | 37650 ft | 415 kts | 41° |
| 2026-04-30 08:38 | 53.53517 | 7.21337 | 37539 ft | 414 kts | 41° |
| 2026-04-30 08:38 | 53.55664 | 7.24540 | 37507 ft | 415 kts | 41° |
| 2026-04-30 08:39 | 53.59980 | 7.30992 | 37277 ft | 413 kts | 41° |
| 2026-04-30 08:39 | 53.62152 | 7.34248 | 37627 ft | 414 kts | 41° |
| 2026-04-30 08:39 | 53.64298 | 7.37468 | 37535 ft | 414 kts | 41° |
| 2026-04-30 08:40 | 53.68599 | 7.43936 | 37504 ft | 414 kts | 41° |
| 2026-04-30 08:40 | 53.72924 | 7.50460 | 37503 ft | 414 kts | 41° |
| 2026-04-30 08:41 | 53.77242 | 7.56989 | 37504 ft | 414 kts | 41° |
| 2026-04-30 08:41 | 53.81628 | 7.63642 | 37502 ft | 414 kts | 41° |
| 2026-04-30 08:42 | 53.86001 | 7.70295 | 37503 ft | 414 kts | 42° |
| 2026-04-30 08:42 | 53.90422 | 7.77041 | 37504 ft | 414 kts | 42° |
| 2026-04-30 08:43 | 53.94844 | 7.83809 | 37503 ft | 414 kts | 42° |
| 2026-04-30 08:43 | 53.99286 | 7.90626 | 37497 ft | 414 kts | 42° |
| 2026-04-30 08:44 | 54.03655 | 7.97350 | 37489 ft | 414 kts | 42° |
| 2026-04-30 08:44 | 54.08093 | 8.04204 | 37487 ft | 414 kts | 42° |
| 2026-04-30 08:45 | 54.12490 | 8.11015 | 37487 ft | 414 kts | 42° |
| 2026-04-30 08:45 | 54.16867 | 8.17814 | 37495 ft | 414 kts | 42° |
| 2026-04-30 08:46 | 54.21211 | 8.24583 | 37504 ft | 413 kts | 41° |
| 2026-04-30 08:46 | 54.25536 | 8.31339 | 37505 ft | 413 kts | 42° |
| 2026-04-30 08:47 | 54.29854 | 8.38106 | 37504 ft | 413 kts | 42° |
| 2026-04-30 08:47 | 54.34123 | 8.44817 | 37505 ft | 413 kts | 41° |
| 2026-04-30 08:48 | 54.38403 | 8.51566 | 37503 ft | 413 kts | 41° |
| 2026-04-30 08:48 | 54.42677 | 8.58322 | 37501 ft | 413 kts | 41° |
| 2026-04-30 08:49 | 54.46905 | 8.65027 | 37500 ft | 413 kts | 42° |
| 2026-04-30 08:49 | 54.51161 | 8.71798 | 37498 ft | 413 kts | 42° |
| 2026-04-30 08:50 | 54.55384 | 8.78535 | 37498 ft | 413 kts | 42° |
| 2026-04-30 08:50 | 54.59600 | 8.85281 | 37499 ft | 413 kts | 42° |
| 2026-04-30 08:51 | 54.63815 | 8.92045 | 37505 ft | 413 kts | 42° |
| 2026-04-30 08:51 | 54.68033 | 8.98832 | 37503 ft | 412 kts | 42° |
| 2026-04-30 08:52 | 54.72245 | 9.05633 | 37506 ft | 412 kts | 42° |
| 2026-04-30 08:52 | 54.76441 | 9.12427 | 37505 ft | 412 kts | 42° |
| 2026-04-30 08:53 | 54.80610 | 9.19198 | 37504 ft | 412 kts | 42° |
| 2026-04-30 08:53 | 54.84797 | 9.26014 | 37507 ft | 412 kts | 42° |
| 2026-04-30 08:54 | 54.88973 | 9.32837 | 37510 ft | 412 kts | 42° |
| 2026-04-30 08:54 | 54.93134 | 9.39654 | 37511 ft | 412 kts | 42° |
| 2026-04-30 08:55 | 54.97303 | 9.46503 | 37512 ft | 412 kts | 41° |
| 2026-04-30 08:55 | 55.01490 | 9.53404 | 37507 ft | 412 kts | 41° |
| 2026-04-30 08:56 | 55.05581 | 9.60390 | 37498 ft | 413 kts | 46° |
| 2026-04-30 08:56 | 55.09102 | 9.68290 | 37500 ft | 415 kts | 54° |
| 2026-04-30 08:57 | 55.11898 | 9.77161 | 37501 ft | 417 kts | 63° |
| 2026-04-30 08:57 | 55.13899 | 9.86697 | 37471 ft | 420 kts | 69° |
| 2026-04-30 08:57 | 55.14776 | 9.91582 | 37159 ft | 420 kts | 69° |
| 2026-04-30 08:58 | 55.15630 | 9.96397 | 36732 ft | 417 kts | 69° |
| 2026-04-30 08:58 | 55.16485 | 10.01232 | 36168 ft | 414 kts | 69° |
| 2026-04-30 08:58 | 55.17339 | 10.06058 | 35497 ft | 412 kts | 70° |
| 2026-04-30 08:58 | 55.18183 | 10.10839 | 34817 ft | 411 kts | 70° |
| 2026-04-30 08:59 | 55.19027 | 10.15629 | 34164 ft | 412 kts | 70° |
| 2026-04-30 08:59 | 55.19861 | 10.20367 | 33486 ft | 413 kts | 70° |
| 2026-04-30 08:59 | 55.20711 | 10.25211 | 32768 ft | 414 kts | 70° |
| 2026-04-30 08:59 | 55.21555 | 10.30039 | 32040 ft | 414 kts | 70° |
| 2026-04-30 09:00 | 55.22390 | 10.34821 | 31305 ft | 415 kts | 70° |
| 2026-04-30 09:00 | 55.23235 | 10.39668 | 30547 ft | 416 kts | 70° |
| 2026-04-30 09:00 | 55.24074 | 10.44497 | 29763 ft | 417 kts | 70° |
| 2026-04-30 09:00 | 55.24914 | 10.49348 | 28977 ft | 418 kts | 70° |
| 2026-04-30 09:01 | 55.25761 | 10.54255 | 28226 ft | 416 kts | 70° |
| 2026-04-30 09:01 | 55.26596 | 10.59113 | 27739 ft | 415 kts | 70° |
| 2026-04-30 09:01 | 55.27417 | 10.63901 | 27244 ft | 411 kts | 70° |
| 2026-04-30 09:01 | 55.28243 | 10.68720 | 26738 ft | 408 kts | 71° |
| 2026-04-30 09:02 | 55.29867 | 10.78172 | 25707 ft | 400 kts | 70° |
| 2026-04-30 09:02 | 55.30663 | 10.82818 | 25190 ft | 397 kts | 71° |
| 2026-04-30 09:02 | 55.31455 | 10.87464 | 24671 ft | 394 kts | 71° |
| 2026-04-30 09:03 | 55.32229 | 10.92024 | 24160 ft | 390 kts | 71° |
| 2026-04-30 09:03 | 55.33000 | 10.96569 | 23646 ft | 387 kts | 71° |
| 2026-04-30 09:03 | 55.33752 | 11.01055 | 23119 ft | 383 kts | 71° |
| 2026-04-30 09:03 | 55.34495 | 11.05537 | 22593 ft | 380 kts | 71° |
| 2026-04-30 09:04 | 55.35231 | 11.09978 | 22073 ft | 376 kts | 71° |
| 2026-04-30 09:04 | 55.35959 | 11.14376 | 21555 ft | 373 kts | 71° |
| 2026-04-30 09:04 | 55.36677 | 11.18726 | 21046 ft | 369 kts | 71° |
| 2026-04-30 09:04 | 55.37391 | 11.23055 | 20538 ft | 366 kts | 71° |
| 2026-04-30 09:05 | 55.38093 | 11.27315 | 20034 ft | 363 kts | 71° |
| 2026-04-30 09:05 | 55.38791 | 11.31572 | 19520 ft | 359 kts | 70° |
| 2026-04-30 09:05 | 55.39475 | 11.35750 | 19012 ft | 356 kts | 70° |
| 2026-04-30 09:05 | 55.40157 | 11.39925 | 18507 ft | 353 kts | 71° |
| 2026-04-30 09:06 | 55.40823 | 11.44010 | 18214 ft | 342 kts | 70° |
| 2026-04-30 09:06 | 55.41462 | 11.47962 | 18049 ft | 329 kts | 70° |
| 2026-04-30 09:06 | 55.42072 | 11.51726 | 17864 ft | 317 kts | 70° |
| 2026-04-30 09:06 | 55.42667 | 11.55411 | 17712 ft | 305 kts | 70° |
| 2026-04-30 09:07 | 55.43235 | 11.58927 | 17564 ft | 294 kts | 70° |
| 2026-04-30 09:07 | 55.43973 | 11.62186 | 17417 ft | 280 kts | 57° |
| 2026-04-30 09:07 | 55.45117 | 11.64933 | 17098 ft | 275 kts | 45° |
| 2026-04-30 09:07 | 55.46501 | 11.67205 | 16689 ft | 275 kts | 42° |
| 2026-04-30 09:08 | 55.47941 | 11.69452 | 16329 ft | 273 kts | 41° |
| 2026-04-30 09:08 | 55.49353 | 11.71648 | 15976 ft | 271 kts | 41° |
| 2026-04-30 09:08 | 55.50756 | 11.73839 | 15617 ft | 270 kts | 41° |
| 2026-04-30 09:08 | 55.52167 | 11.76043 | 15254 ft | 268 kts | 41° |
| 2026-04-30 09:09 | 55.53569 | 11.78237 | 14901 ft | 267 kts | 41° |
| 2026-04-30 09:09 | 55.54947 | 11.80398 | 14532 ft | 266 kts | 41° |
| 2026-04-30 09:09 | 55.56316 | 11.82549 | 14180 ft | 264 kts | 41° |
| 2026-04-30 09:09 | 55.57686 | 11.84701 | 13805 ft | 262 kts | 41° |
| 2026-04-30 09:10 | 55.59056 | 11.86860 | 13439 ft | 260 kts | 41° |
| 2026-04-30 09:10 | 55.60393 | 11.88970 | 13097 ft | 258 kts | 41° |
| 2026-04-30 09:10 | 55.61727 | 11.91074 | 12732 ft | 256 kts | 41° |
| 2026-04-30 09:10 | 55.63063 | 11.93182 | 12531 ft | 261 kts | 41° |
| 2026-04-30 09:11 | 55.64429 | 11.95339 | 12327 ft | 263 kts | 41° |
| 2026-04-30 09:11 | 55.65797 | 11.97501 | 12113 ft | 263 kts | 41° |
| 2026-04-30 09:11 | 55.67160 | 11.99662 | 11957 ft | 262 kts | 41° |
| 2026-04-30 09:11 | 55.68521 | 12.01820 | 11818 ft | 261 kts | 41° |
| 2026-04-30 09:12 | 55.69875 | 12.03970 | 11634 ft | 261 kts | 41° |
| 2026-04-30 09:12 | 55.71218 | 12.06103 | 11299 ft | 260 kts | 41° |
| 2026-04-30 09:12 | 55.72522 | 12.08307 | 10925 ft | 259 kts | 50° |
| 2026-04-30 09:12 | 55.73299 | 12.11189 | 10572 ft | 264 kts | 75° |
| 2026-04-30 09:13 | 55.73328 | 12.14453 | 10247 ft | 269 kts | 91° |
| 2026-04-30 09:13 | 55.73119 | 12.17714 | 9905 ft | 267 kts | 91° |
| 2026-04-30 09:13 | 55.72913 | 12.20957 | 9559 ft | 265 kts | 91° |
| 2026-04-30 09:13 | 55.72712 | 12.24168 | 9208 ft | 264 kts | 91° |
| 2026-04-30 09:14 | 55.72512 | 12.27414 | 8749 ft | 267 kts | 91° |
| 2026-04-30 09:14 | 55.72308 | 12.30722 | 8283 ft | 271 kts | 91° |
| 2026-04-30 09:14 | 55.72104 | 12.34023 | 7826 ft | 273 kts | 91° |
| 2026-04-30 09:14 | 55.71894 | 12.37345 | 7381 ft | 272 kts | 91° |
| 2026-04-30 09:15 | 55.71684 | 12.40664 | 6986 ft | 269 kts | 92° |
| 2026-04-30 09:15 | 55.71477 | 12.43926 | 6681 ft | 265 kts | 92° |
| 2026-04-30 09:15 | 55.71274 | 12.47118 | 6395 ft | 263 kts | 92° |
| 2026-04-30 09:15 | 55.71194 | 12.50340 | 6026 ft | 258 kts | 79° |
| 2026-04-30 09:16 | 55.71652 | 12.53354 | 5674 ft | 253 kts | 62° |
| 2026-04-30 09:16 | 55.72424 | 12.56130 | 5322 ft | 251 kts | 59° |
| 2026-04-30 09:16 | 55.73226 | 12.58861 | 5029 ft | 250 kts | 59° |
| 2026-04-30 09:16 | 55.74028 | 12.61600 | 4696 ft | 249 kts | 59° |
| 2026-04-30 09:17 | 55.74876 | 12.64238 | 4363 ft | 247 kts | 53° |
| 2026-04-30 09:17 | 55.75852 | 12.66725 | 4030 ft | 246 kts | 50° |
| 2026-04-30 09:17 | 55.76884 | 12.69127 | 3718 ft | 244 kts | 49° |
| 2026-04-30 09:17 | 55.77908 | 12.71491 | 3591 ft | 234 kts | 49° |
| 2026-04-30 09:18 | 55.78860 | 12.73756 | 3497 ft | 226 kts | 55° |
| 2026-04-30 09:18 | 55.79260 | 12.76396 | 3339 ft | 227 kts | 92° |
| 2026-04-30 09:18 | 55.78707 | 12.78992 | 3095 ft | 231 kts | 126° |
| 2026-04-30 09:18 | 55.77631 | 12.81131 | 2856 ft | 231 kts | 132° |
| 2026-04-30 09:19 | 55.76547 | 12.83184 | 2657 ft | 226 kts | 132° |
| 2026-04-30 09:19 | 55.75358 | 12.84936 | 2440 ft | 221 kts | 160° |
| 2026-04-30 09:19 | 55.73899 | 12.85023 | 2364 ft | 206 kts | 209° |
| 2026-04-30 09:19 | 55.72791 | 12.83508 | 2334 ft | 201 kts | 232° |
| 2026-04-30 09:20 | 55.71871 | 12.81686 | 2165 ft | 200 kts | 232° |
| 2026-04-30 09:20 | 55.70917 | 12.79904 | 2073 ft | 191 kts | 231° |
| 2026-04-30 09:20 | 55.69998 | 12.78313 | 1941 ft | 180 kts | 228° |
| 2026-04-30 09:20 | 55.69083 | 12.76862 | 1722 ft | 170 kts | 227° |
| 2026-04-30 09:21 | 55.68216 | 12.75534 | 1485 ft | 160 kts | 227° |
| 2026-04-30 09:21 | 55.67394 | 12.74274 | 1269 ft | 149 kts | 227° |
| 2026-04-30 09:21 | 55.66626 | 12.73089 | 1108 ft | 148 kts | 227° |
| 2026-04-30 09:21 | 55.65866 | 12.71912 | 917 ft | 141 kts | 227° |
| 2026-04-30 09:22 | 55.65154 | 12.70813 | 714 ft | 132 kts | 227° |
| 2026-04-30 09:22 | 55.64465 | 12.69743 | 553 ft | 132 kts | 227° |
| 2026-04-30 09:22 | 55.63783 | 12.68685 | 378 ft | 130 kts | 227° |
| 2026-04-30 09:22 | 55.63105 | 12.67634 | 204 ft | 130 kts | 226° |
| 2026-04-30 09:23 | 55.62430 | 12.66589 | 42 ft | 128 kts | 226° |
| 2026-04-30 09:23 | 55.61839 | 12.65664 | 26 ft | 90 kts | 220° |
| 2026-04-30 09:23 | 55.61481 | 12.65115 | 26 ft | 55 kts | 222° |
| 2026-04-30 09:23 | 55.61285 | 12.64741 | 26 ft | 34 kts | 245° |
| 2026-04-30 09:24 | 55.61214 | 12.64409 | 26 ft | 18 kts | 252° |
| 2026-04-30 09:24 | 55.61187 | 12.64196 | 26 ft | 16 kts | 282° |
| 2026-04-30 09:24 | 55.61277 | 12.64114 | 26 ft | 16 kts | 18° |
| 2026-04-30 09:24 | 55.61378 | 12.64224 | 26 ft | 17 kts | 33° |
| 2026-04-30 09:25 | 55.61476 | 12.64337 | 26 ft | 15 kts | 33° |
| 2026-04-30 09:25 | 55.61565 | 12.64440 | 26 ft | 15 kts | 33° |
| 2026-04-30 09:25 | 55.61658 | 12.64546 | 26 ft | 16 kts | 28° |
| 2026-04-30 09:25 | 55.61769 | 12.64550 | 26 ft | 16 kts | 349° |
| 2026-04-30 09:26 | 55.61883 | 12.64512 | 26 ft | 17 kts | 350° |
| 2026-04-30 09:26 | 55.62004 | 12.64472 | 26 ft | 17 kts | 349° |
| 2026-04-30 09:26 | 55.62127 | 12.64429 | 26 ft | 18 kts | 348° |
| 2026-04-30 09:26 | 55.62257 | 12.64398 | 26 ft | 18 kts | 1° |
| 2026-04-30 09:27 | 55.62357 | 12.64434 | 26 ft | 13 kts | 15° |
| 2026-04-30 09:27 | 55.62445 | 12.64476 | 26 ft | 9 kts | 15° |
| 2026-04-30 09:27 | 55.62507 | 12.64446 | 25 ft | 10 kts | 312° |
| 2026-04-30 09:27 | 55.62548 | 12.64338 | 26 ft | 10 kts | 303° |
| 2026-04-30 09:28 | 55.62590 | 12.64223 | 26 ft | 11 kts | 303° |
| 2026-04-30 09:28 | 55.62636 | 12.64100 | 26 ft | 12 kts | 303° |
| 2026-04-30 09:28 | 55.62683 | 12.63973 | 26 ft | 11 kts | 303° |
| 2026-04-30 09:28 | 55.62749 | 12.63930 | 26 ft | 11 kts | 21° |
| 2026-04-30 09:29 | 55.62805 | 12.63999 | 26 ft | 8 kts | 47° |
| 2026-04-30 09:29 | 55.62835 | 12.64092 | 26 ft | 8 kts | 69° |
| 2026-04-30 09:29 | 55.62827 | 12.64175 | 26 ft | 3 kts | 122° |
| 2026-04-30 09:29 | 55.62818 | 12.64201 | 26 ft | 1 kts | 123° |
| 2026-04-30 09:30 | 55.62813 | 12.64215 | 26 ft | 0 kts | 123° |